• Join FlightAware (Why Join?)
  • Login
  • US Flag 
02:49AM EDT


 

Airport Tracker/Info


-or-


 

Live Flight TrackerFlight Track Log ✈ AFL150 ✈ 18-Mar-2014 ✈ UUEE / SVO - MUHA / HAV

Flight Track Log - Related Links

Times and Time Zones

All times are in EDT time to prevent confusion due to time zone crossing. See the AFL150 flight status page for this flight to view local times or setup timezone preferences in your user account.

Time Position Orientation Groundspeed Altitude Reporting Facility
EDT Latitude Longitude Course Direction KTS MPH feet Rate Location/Type
05:39AM 56.1535 36.9430 307° West  Level Estimated
05:40AM 56.2211 36.7779 306° West  Level Estimated
05:41AM 56.2885 36.6123 306° West  Level Estimated
05:42AM 56.3557 36.4460 306° West  Level Estimated
05:43AM 56.4227 36.2792 306° West  Level Estimated
05:44AM 56.4894 36.1118 306° West  Level Estimated
05:45AM 56.5559 35.9438 306° West  Level Estimated
05:46AM 56.6222 35.7752 306° West  Level Estimated
05:47AM 56.6883 35.6060 305° West  Level Estimated
05:48AM 56.7541 35.4363 305° West  Level Estimated
05:49AM 56.8197 35.2659 305° West  Level Estimated
05:50AM 56.8851 35.0949 305° West  Level Estimated
05:51AM 56.9502 34.9234 305° West  Level Estimated
05:52AM 57.0151 34.7512 305° West  Level Estimated
05:53AM 57.0798 34.5784 305° West  Level Estimated
05:54AM 57.1442 34.4051 304° West  Level Estimated
05:55AM 57.2084 34.2311 304° West  Level Estimated
05:56AM 57.2724 34.0565 304° West  Level Estimated
05:57AM 57.3360 33.8813 304° West  Level Estimated
05:58AM 57.3995 33.7056 304° West  Level Estimated
05:59AM 57.4627 33.5291 304° West  Level Estimated
06:00AM 57.5257 33.3521 304° West  Level Estimated
06:01AM 57.5884 33.1745 303° West  Level Estimated
06:02AM 57.6509 32.9963 303° West  Level Estimated
06:03AM 57.7131 32.8175 303° West  Level Estimated
06:04AM 57.7750 32.6380 303° West  Level Estimated
06:05AM 57.8367 32.4579 303° West  Level Estimated
06:06AM 57.8982 32.2772 303° West  Level Estimated
06:07AM 57.9594 32.0959 303° West  Level Estimated
06:08AM 58.0203 31.9140 302° West  Level Estimated
06:09AM 58.0810 31.7314 302° West  Level Estimated
06:10AM 58.1414 31.5483 302° West  Level Estimated
06:11AM 58.2015 31.3645 302° West  Level Estimated
06:12AM 58.2614 31.1801 302° West  Level Estimated
06:13AM 58.3210 30.9950 302° West  Level Estimated
06:14AM 58.3804 30.8094 301° West  Level Estimated
06:15AM 58.4395 30.6231 301° West  Level Estimated
06:16AM 58.4983 30.4362 301° West  Level Estimated
06:17AM 58.5568 30.2487 301° West  Level Estimated
06:18AM 58.6151 30.0605 301° West  Level Estimated
06:19AM 58.6731 29.8717 301° West  Level Estimated
06:20AM 58.7308 29.6823 300° West  Level Estimated
06:21AM 58.7882 29.4923 300° West  Level Estimated
06:22AM 58.8453 29.3016 300° West  Level Estimated
06:23AM 58.9022 29.1103 300° West  Level Estimated
06:24AM 58.9588 28.9184 300° West  Level Estimated
06:25AM 59.0151 28.7258 300° West  Level Estimated
06:26AM 59.0711 28.5326 299° West  Level Estimated
06:27AM 59.1268 28.3388 299° West  Level Estimated
06:28AM 59.1823 28.1444 299° West  Level Estimated
06:29AM 59.2374 27.9493 299° West  Level Estimated
06:30AM 59.2923 27.7536 299° West  Level Estimated
06:31AM 59.3468 27.5573 299° West  Level Estimated
06:32AM 59.4011 27.3603 298° West  Level Estimated
06:33AM 59.4550 27.1627 298° West  Level Estimated
06:34AM 59.5087 26.9645 298° West  Level Estimated
06:35AM 59.5621 26.7656 298° West  Level Estimated
06:36AM 59.6151 26.5661 298° West  Level Estimated
06:37AM 59.6679 26.3660 298° West  Level Estimated
06:38AM 59.7203 26.1653 297° West  Level Estimated
06:39AM 59.7725 25.9639 297° West  Level Estimated
06:40AM 59.8243 25.7619 297° West  Level Estimated
06:41AM 59.8758 25.5593 297° West  Level Estimated
06:42AM 59.9271 25.3560 297° West  Level Estimated
06:43AM 59.9780 25.1521 297° West  Level Estimated
06:44AM 60.0285 24.9476 296° West  Level Estimated
06:45AM 60.0788 24.7425 296° West  Level Estimated
06:46AM 60.1287 24.5367 296° West  Level Estimated
06:47AM 60.1784 24.3304 296° West  Level Estimated
06:48AM 60.2277 24.1234 296° West  Level Estimated
06:49AM 60.2767 23.9157 296° West  Level Estimated
06:50AM 60.3253 23.7075 295° West  Level Estimated
06:51AM 60.3736 23.4986 295° West  Level Estimated
06:52AM 60.4217 23.2891 295° West  Level Estimated
06:53AM 60.4693 23.0790 295° West  Level Estimated
06:54AM 60.5167 22.8683 295° West  Level Estimated
06:55AM 60.5637 22.6570 294° West  Level Estimated
06:56AM 60.6104 22.4450 294° West  Level Estimated
06:57AM 60.6567 22.2325 294° West  Level Estimated
06:58AM 60.7027 22.0193 294° West  Level Estimated
06:59AM 60.7484 21.8055 294° West  Level Estimated
07:00AM 60.7937 21.5912 294° West  Level Estimated
07:01AM 60.8386 21.3762 293° West  Level Estimated
07:02AM 60.8833 21.1606 293° West  Level Estimated
07:03AM 60.9276 20.9444 293° West  Level Estimated
07:04AM 60.9715 20.7276 293° West  Level Estimated
07:05AM 61.0151 20.5102 293° West  Level Estimated
07:05AM 61.0371 22.2304 301° West 386 444 34,000  Level FlightAware ADS-B (ESKB)
07:06AM 61.0583 20.2922 292° West  Level Estimated
07:07AM 61.1332 21.8930 300° West 384 442 34,900  Level FlightAware ADS-B (ESKB)
07:08AM 61.1351 21.8874 315° West 383 441 35,700 480 Climbing FlightAware ADS-B (ESKB)
07:09AM 61.2877 21.5725 315° West 388 447 36,000 120 Climbing FlightAware ADS-B (ESKB)
07:10AM 61.3615 21.4213 315° West 388 447 36,000  Level FlightAware ADS-B (ESKB)
07:11AM 61.4170 21.3066 315° West 388 447 36,000  Level FlightAware ADS-B (ESKB)
07:12AM 61.4751 21.1860 315° West 387 445 36,000  Level FlightAware ADS-B (ESKB)
07:14AM 61.6325 20.8553 315° West 388 447 36,000  Level FlightAware ADS-B (ESKB)
07:16AM 61.7112 20.4514 293° West  Level Estimated
07:17AM 61.7541 20.2281 292° West  Level Estimated
07:18AM 61.7966 20.0043 292° West  Level Estimated
07:19AM 61.8387 19.7798 292° West  Level Estimated
07:20AM 61.8804 19.5547 292° West  Level Estimated
07:21AM 61.9218 19.3290 291° West  Level Estimated
07:22AM 61.9628 19.1027 291° West  Level Estimated
07:23AM 62.0034 18.8758 291° West  Level Estimated
07:24AM 62.0437 18.6483 291° West  Level Estimated
07:25AM 62.0836 18.4202 291° West  Level Estimated
07:26AM 62.1231 18.1915 290° West  Level Estimated
07:27AM 62.1623 17.9622 290° West  Level Estimated
07:28AM 62.2010 17.7323 290° West  Level Estimated
07:29AM 62.2394 17.5018 290° West  Level Estimated
07:30AM 62.2774 17.2707 290° West  Level Estimated
07:31AM 62.3150 17.0390 289° West  Level Estimated
07:32AM 62.3522 16.8068 289° West  Level Estimated
07:33AM 62.3890 16.5740 289° West  Level Estimated
07:34AM 62.4255 16.3406 289° West  Level Estimated
07:35AM 62.4615 16.1067 289° West  Level Estimated
07:36AM 62.4972 15.8722 288° West  Level Estimated
07:37AM 62.5325 15.6371 288° West  Level Estimated
07:38AM 62.5673 15.4015 288° West  Level Estimated
07:39AM 62.6018 15.1654 288° West  Level Estimated
07:40AM 62.6359 14.9287 287° West  Level Estimated
07:41AM 62.6695 14.6914 287° West  Level Estimated
07:42AM 62.7028 14.4536 287° West  Level Estimated
07:43AM 62.7357 14.2153 287° West  Level Estimated
07:44AM 62.7681 13.9765 287° West  Level Estimated
07:45AM 62.8002 13.7371 286° West  Level Estimated
07:46AM 62.8318 13.4972 286° West  Level Estimated
07:47AM 62.8631 13.2568 286° West  Level Estimated
07:48AM 62.8939 13.0159 286° West  Level Estimated
07:49AM 62.9243 12.7745 286° West  Level Estimated
07:50AM 62.9543 12.5325 285° West  Level Estimated
07:51AM 62.9839 12.2901 285° West  Level Estimated
07:52AM 63.0131 12.0472 285° West  Level Estimated
07:53AM 63.0419 11.8039 285° West  Level Estimated
07:54AM 63.0702 11.5600 284° West  Level Estimated
07:55AM 63.0981 11.3157 284° West  Level Estimated
07:56AM 63.1256 11.0709 284° West  Level Estimated
07:57AM 63.1527 10.8256 284° West  Level Estimated
07:58AM 63.1794 10.5799 284° West  Level Estimated
07:59AM 63.2056 10.3338 283° West  Level Estimated
08:00AM 63.2314 10.0872 283° West  Level Estimated
08:01AM 63.2568 9.8401 283° West  Level Estimated
08:02AM 63.2817 9.5927 283° West  Level Estimated
08:03AM 63.3062 9.3448 283° West  Level Estimated
08:04AM 63.3303 9.0965 282° West  Level Estimated
08:05AM 63.3540 8.8477 282° West  Level Estimated
08:06AM 63.3772 8.5986 282° West  Level Estimated
08:07AM 63.4000 8.3491 282° West  Level Estimated
08:08AM 63.4223 8.0991 281° West  Level Estimated
08:09AM 63.4442 7.8488 281° West  Level Estimated
08:10AM 63.4657 7.5982 281° West  Level Estimated
08:11AM 63.4867 7.3471 281° West  Level Estimated
08:12AM 63.5073 7.0957 281° West  Level Estimated
08:13AM 63.5275 6.8439 280° West  Level Estimated
08:14AM 63.5472 6.5917 280° West  Level Estimated
08:15AM 63.5665 6.3393 280° West  Level Estimated
08:16AM 63.5853 6.0864 280° West  Level Estimated
08:17AM 63.6037 5.8333 279° West  Level Estimated
08:18AM 63.6216 5.5798 279° West  Level Estimated
08:19AM 63.6391 5.3260 279° West  Level Estimated
08:20AM 63.6561 5.0719 279° West  Level Estimated
08:21AM 63.6727 4.8175 278° West  Level Estimated
08:22AM 63.6889 4.5628 278° West  Level Estimated
08:23AM 63.7045 4.3078 278° West  Level Estimated
08:24AM 63.7198 4.0526 278° West  Level Estimated
08:25AM 63.7346 3.7971 278° West  Level Estimated
08:26AM 63.7489 3.5413 277° West  Level Estimated
08:27AM 63.7628 3.2852 277° West  Level Estimated
08:28AM 63.7762 3.0289 277° West  Level Estimated
08:29AM 63.7892 2.7724 277° West  Level Estimated
08:30AM 63.8017 2.5156 276° West  Level Estimated
08:31AM 63.8138 2.2586 276° West  Level Estimated
08:32AM 63.8254 2.0014 276° West  Level Estimated
08:33AM 63.8365 1.7440 276° West  Level Estimated
08:34AM 63.8472 1.4864 275° West  Level Estimated
08:35AM 63.8574 1.2286 275° West  Level Estimated
08:36AM 63.8672 0.9706 275° West  Level Estimated
08:37AM 63.8765 0.7124 275° West  Level Estimated
08:38AM 63.8853 0.4541 275° West  Level Estimated
08:39AM 63.8937 0.1956 274° West  Level Estimated
08:40AM 63.9017 -0.0631 274° West  Level Estimated
08:41AM 63.9091 -0.3219 274° West  Level Estimated
08:42AM 63.9161 -0.5808 274° West  Level Estimated
08:43AM 63.9227 -0.8398 273° West  Level Estimated
08:44AM 63.9287 -1.0990 273° West  Level Estimated
08:45AM 63.9344 -1.3582 273° West  Level Estimated
08:46AM 63.9395 -1.6176 273° West  Level Estimated
08:47AM 63.9442 -1.8771 272° West  Level Estimated
08:48AM 63.9484 -2.1366 272° West  Level Estimated
08:49AM 63.9522 -2.3962 272° West  Level Estimated
08:50AM 63.9555 -2.6559 272° West  Level Estimated
08:51AM 63.9583 -2.9156 272° West  Level Estimated
08:52AM 63.9607 -3.1754 271° West  Level Estimated
08:53AM 63.9626 -3.4353 271° West  Level Estimated
08:54AM 63.9640 -3.6951 271° West  Level Estimated
08:55AM 63.9650 -3.9550 271° West  Level Estimated
08:56AM 63.9655 -4.2149 270° West  Level Estimated
08:57AM 63.9656 -4.4748 270° West  Level Estimated
08:58AM 63.9651 -4.7347 270° West  Level Estimated
08:59AM 63.9642 -4.9946 270° West  Level Estimated
09:00AM 63.9629 -5.2544 269° West  Level Estimated
09:01AM 63.9611 -5.5142 269° West  Level Estimated
09:02AM 63.9588 -5.7740 269° West  Level Estimated
09:03AM 63.9561 -6.0338 269° West  Level Estimated
09:04AM 63.9529 -6.2935 269° West  Level Estimated
09:05AM 63.9492 -6.5531 268° West  Level Estimated
09:06AM 63.9450 -6.8127 268° West  Level Estimated
09:07AM 63.9404 -7.0721 268° West  Level Estimated
09:08AM 63.9354 -7.3315 268° West  Level Estimated
09:09AM 63.9299 -7.5908 267° West  Level Estimated
09:10AM 63.9239 -7.8500 267° West  Level Estimated
09:11AM 63.9174 -8.1090 267° West  Level Estimated
09:12AM 63.9105 -8.3680 267° West  Level Estimated
09:13AM 63.9031 -8.6268 266° West  Level Estimated
09:14AM 63.8953 -8.8855 266° West  Level Estimated
09:15AM 63.8870 -9.1440 266° West  Level Estimated
09:16AM 63.8782 -9.4024 266° West  Level Estimated
09:17AM 63.8690 -9.6606 265° West  Level Estimated
09:18AM 63.8593 -9.9186 265° West  Level Estimated
09:19AM 63.8492 -10.1764 265° West  Level Estimated
09:20AM 63.8386 -10.4341 265° West  Level Estimated
09:21AM 63.8275 -10.6915 265° West  Level Estimated
09:22AM 63.8160 -10.9488 264° West  Level Estimated
09:23AM 63.8040 -11.2058 264° West  Level Estimated
09:24AM 63.7916 -11.4626 264° West  Level Estimated
09:25AM 63.7787 -11.7192 264° West  Level Estimated
09:26AM 63.7654 -11.9756 263° West  Level Estimated
09:27AM 63.7516 -12.2317 263° West  Level Estimated
09:28AM 63.7373 -12.4875 263° West  Level Estimated
09:29AM 63.7226 -12.7431 263° West  Level Estimated
09:30AM 63.7075 -12.9984 262° West  Level Estimated
09:31AM 63.6919 -13.2534 262° West  Level Estimated
09:32AM 63.6758 -13.5082 262° West  Level Estimated
09:33AM 63.6593 -13.7626 262° West  Level Estimated
09:34AM 63.6424 -14.0168 262° West  Level Estimated
09:35AM 63.6250 -14.2706 261° West  Level Estimated
09:36AM 63.6071 -14.5242 261° West  Level Estimated
09:37AM 63.5888 -14.7774 261° West  Level Estimated
09:38AM 63.5701 -15.0303 261° West  Level Estimated
09:39AM 63.5509 -15.2828 260° West  Level Estimated
09:40AM 63.5313 -15.5350 260° West  Level Estimated
09:41AM 63.5112 -15.7869 260° West  Level Estimated
09:42AM 63.4907 -16.0384 260° West  Level Estimated
09:43AM 63.4697 -16.2895 260° West  Level Estimated
09:44AM 63.4483 -16.5403 259° West  Level Estimated
09:45AM 63.4265 -16.7906 259° West  Level Estimated
09:46AM 63.4043 -17.0406 259° West  Level Estimated
09:47AM 63.3816 -17.2903 259° West  Level Estimated
09:48AM 63.3584 -17.5395 258° West  Level Estimated
09:49AM 63.3349 -17.7883 258° West  Level Estimated
09:50AM 63.3108 -18.0367 258° West  Level Estimated
09:51AM 63.2864 -18.2846 258° West  Level Estimated
09:52AM 63.2616 -18.5322 258° West  Level Estimated
09:53AM 63.2363 -18.7793 257° West  Level Estimated
09:54AM 63.2105 -19.0260 257° West  Level Estimated
09:55AM 63.1844 -19.2722 257° West  Level Estimated
09:56AM 63.1578 -19.5180 257° West  Level Estimated
09:57AM 63.1308 -19.7634 256° West  Level Estimated
09:58AM 63.1034 -20.0082 256° West  Level Estimated
09:59AM 63.0756 -20.2527 256° West  Level Estimated
10:00AM 63.0473 -20.4966 256° West  Level Estimated
10:01AM 63.0186 -20.7401 256° West  Level Estimated
10:02AM 62.9895 -20.9831 255° West  Level Estimated
10:03AM 62.9600 -21.2256 255° West  Level Estimated
10:04AM 62.9301 -21.4676 255° West  Level Estimated
10:05AM 62.8997 -21.7091 255° West  Level Estimated
10:06AM 62.8690 -21.9501 254° West  Level Estimated
10:07AM 62.8378 -22.1906 254° West  Level Estimated
10:08AM 62.8063 -22.4306 254° West  Level Estimated
10:09AM 62.7743 -22.6700 254° West  Level Estimated
10:10AM 62.7419 -22.9090 254° West  Level Estimated
10:11AM 62.7091 -23.1474 253° West  Level Estimated
10:12AM 62.6759 -23.3853 253° West  Level Estimated
10:13AM 62.6423 -23.6227 253° West  Level Estimated
10:14AM 62.6083 -23.8595 253° West  Level Estimated
10:15AM 62.5739 -24.0957 253° West  Level Estimated
10:16AM 62.5391 -24.3315 252° West  Level Estimated
10:17AM 62.5039 -24.5666 252° West  Level Estimated
10:18AM 62.4683 -24.8012 252° West  Level Estimated
10:19AM 62.4324 -25.0353 252° West  Level Estimated
10:20AM 62.3960 -25.2688 252° West  Level Estimated
10:21AM 62.3592 -25.5017 251° West  Level Estimated
10:22AM 62.3221 -25.7340 251° West  Level Estimated
10:23AM 62.2846 -25.9658 251° West  Level Estimated
10:24AM 62.2466 -26.1970 251° West  Level Estimated
10:25AM 62.2083 -26.4275 250° West  Level Estimated
10:26AM 62.1702 -26.6546 250° West  Level Estimated
10:27AM 62.1316 -26.8810 250° West  Level Estimated
10:28AM 62.0927 -27.1068 250° West  Level Estimated
10:29AM 62.0534 -27.3321 250° West  Level Estimated
10:30AM 62.0138 -27.5568 249° West  Level Estimated
10:31AM 61.9738 -27.7809 249° West  Level Estimated
10:32AM 61.9334 -28.0044 249° West  Level Estimated
10:33AM 61.8927 -28.2273 249° West  Level Estimated
10:34AM 61.8516 -28.4497 249° West  Level Estimated
10:35AM 61.8101 -28.6714 248° West  Level Estimated
10:36AM 61.7683 -28.8925 248° West  Level Estimated
10:37AM 61.7261 -29.1130 248° West  Level Estimated
10:38AM 61.6836 -29.3330 248° West  Level Estimated
10:39AM 61.6408 -29.5523 248° West  Level Estimated
10:40AM 61.5975 -29.7710 248° West  Level Estimated
10:41AM 61.5540 -29.9891 247° West  Level Estimated
10:42AM 61.5101 -30.2065 247° West  Level Estimated
10:43AM 61.4658 -30.4234 247° West  Level Estimated
10:44AM 61.4212 -30.6396 247° West  Level Estimated
10:45AM 61.3763 -30.8553 247° West  Level Estimated
10:46AM 61.3310 -31.0703 246° West  Level Estimated
10:47AM 61.2854 -31.2846 246° West  Level Estimated
10:48AM 61.2384 -31.5031 246° West  Level Estimated
10:49AM 61.1910 -31.7212 246° West  Level Estimated
10:50AM 61.1433 -31.9386 246° West  Level Estimated
10:51AM 61.0952 -32.1553 245° Southwest  Level Estimated
10:52AM 61.0468 -32.3714 245° Southwest  Level Estimated
10:53AM 60.9980 -32.5868 245° Southwest  Level Estimated
10:54AM 60.9489 -32.8015 245° Southwest  Level Estimated
10:55AM 60.8994 -33.0156 245° Southwest  Level Estimated
10:56AM 60.8497 -33.2290 244° Southwest  Level Estimated
10:57AM 60.7995 -33.4418 244° Southwest  Level Estimated
10:58AM 60.7491 -33.6539 244° Southwest  Level Estimated
10:59AM 60.6983 -33.8653 244° Southwest  Level Estimated
11:00AM 60.6471 -34.0760 244° Southwest  Level Estimated
11:01AM 60.5957 -34.2861 244° Southwest  Level Estimated
11:02AM 60.5439 -34.4955 243° Southwest  Level Estimated
11:03AM 60.4918 -34.7042 243° Southwest  Level Estimated
11:04AM 60.4394 -34.9123 243° Southwest  Level Estimated
11:05AM 60.3866 -35.1197 243° Southwest  Level Estimated
11:06AM 60.3335 -35.3264 243° Southwest  Level Estimated
11:07AM 60.2801 -35.5325 242° Southwest  Level Estimated
11:08AM 60.2264 -35.7378 242° Southwest  Level Estimated
11:09AM 60.1724 -35.9425 242° Southwest  Level Estimated
11:10AM 60.1180 -36.1466 242° Southwest  Level Estimated
11:11AM 60.0634 -36.3499 242° Southwest  Level Estimated
11:12AM 60.0084 -36.5526 242° Southwest  Level Estimated
11:13AM 59.9531 -36.7546 241° Southwest  Level Estimated
11:14AM 59.8975 -36.9559 241° Southwest  Level Estimated
11:15AM 59.8416 -37.1566 241° Southwest  Level Estimated
11:16AM 59.7854 -37.3565 241° Southwest  Level Estimated
11:17AM 59.7289 -37.5558 241° Southwest  Level Estimated
11:18AM 59.6721 -37.7545 241° Southwest  Level Estimated
11:19AM 59.6150 -37.9524 240° Southwest  Level Estimated
11:20AM 59.5576 -38.1497 240° Southwest  Level Estimated
11:21AM 59.4999 -38.3463 240° Southwest  Level Estimated
11:22AM 59.4419 -38.5422 240° Southwest  Level Estimated
11:23AM 59.3836 -38.7375 240° Southwest  Level Estimated
11:24AM 59.3251 -38.9321 240° Southwest  Level Estimated
11:25AM 59.2662 -39.1260 239° Southwest  Level Estimated
11:26AM 59.2070 -39.3193 239° Southwest  Level Estimated
11:27AM 59.1476 -39.5118 239° Southwest  Level Estimated
11:28AM 59.0879 -39.7038 239° Southwest  Level Estimated
11:29AM 59.0279 -39.8950 239° Southwest  Level Estimated
11:30AM 58.9676 -40.0856 239° Southwest  Level Estimated
11:31AM 58.9070 -40.2755 238° Southwest  Level Estimated
11:32AM 58.8462 -40.4647 238° Southwest  Level Estimated
11:33AM 58.7851 -40.6533 238° Southwest  Level Estimated
11:34AM 58.7237 -40.8412 238° Southwest  Level Estimated
11:35AM 58.6620 -41.0284 238° Southwest  Level Estimated
11:36AM 58.6001 -41.2150 238° Southwest  Level Estimated
11:37AM 58.5379 -41.4010 237° Southwest  Level Estimated
11:38AM 58.4754 -41.5862 237° Southwest  Level Estimated
11:39AM 58.4127 -41.7708 237° Southwest  Level Estimated
11:40AM 58.3497 -41.9548 237° Southwest  Level Estimated
11:41AM 58.2864 -42.1381 237° Southwest  Level Estimated
11:42AM 58.2229 -42.3207 237° Southwest  Level Estimated
11:43AM 58.1591 -42.5027 236° Southwest  Level Estimated
11:44AM 58.0951 -42.6840 236° Southwest  Level Estimated
11:45AM 58.0308 -42.8647 236° Southwest  Level Estimated
11:46AM 57.9663 -43.0447 236° Southwest  Level Estimated
11:47AM 57.9014 -43.2241 236° Southwest  Level Estimated
11:48AM 57.8364 -43.4028 236° Southwest  Level Estimated
11:49AM 57.7711 -43.5809 236° Southwest  Level Estimated
11:50AM 57.7055 -43.7584 235° Southwest  Level Estimated
11:51AM 57.6397 -43.9352 235° Southwest  Level Estimated
11:52AM 57.5737 -44.1113 235° Southwest  Level Estimated
11:53AM 57.5074 -44.2868 235° Southwest  Level Estimated
11:54AM 57.4408 -44.4617 235° Southwest  Level Estimated
11:55AM 57.3741 -44.6360 235° Southwest  Level Estimated
11:56AM 57.3070 -44.8096 234° Southwest  Level Estimated
11:57AM 57.2398 -44.9826 234° Southwest  Level Estimated
11:58AM 57.1723 -45.1549 234° Southwest  Level Estimated
11:59AM 57.1046 -45.3266 234° Southwest  Level Estimated
12:00PM 57.0366 -45.4977 234° Southwest  Level Estimated
12:01PM 56.9684 -45.6682 234° Southwest  Level Estimated
12:02PM 56.9000 -45.8380 234° Southwest  Level Estimated
12:03PM 56.8313 -46.0073 233° Southwest  Level Estimated
12:04PM 56.7624 -46.1759 233° Southwest  Level Estimated
12:05PM 56.6933 -46.3438 233° Southwest  Level Estimated
12:06PM 56.6240 -46.5112 233° Southwest  Level Estimated
12:07PM 56.5544 -46.6780 233° Southwest  Level Estimated
12:08PM 56.4846 -46.8441 233° Southwest  Level Estimated
12:09PM 56.4146 -47.0096 233° Southwest  Level Estimated
12:10PM 56.3444 -47.1745 233° Southwest  Level Estimated
12:11PM 56.2736 -47.3397 232° Southwest  Level Estimated
12:12PM 56.2025 -47.5044 232° Southwest  Level Estimated
12:13PM 56.1313 -47.6684 232° Southwest  Level Estimated
12:14PM 56.0598 -47.8318 232° Southwest  Level Estimated
12:15PM 55.9881 -47.9945 232° Southwest  Level Estimated
12:15PM 59.6833 -56.2333 231° Southwest 470 541 37,000  Level Gander Center
12:16PM 55.9162 -48.1567 232° Southwest  Level Estimated
12:16PM 59.6000 -56.4500 233° Southwest 470 541 37,000  Level Gander Center
12:17PM 55.8441 -48.3183 232° Southwest  Level Estimated
12:17PM 59.5167 -56.6500 231° Southwest 470 541 37,000  Level Gander Center
12:18PM 55.7717 -48.4793 231° Southwest  Level Estimated
12:18PM 59.4333 -56.8333 228° Southwest 470 541 37,000  Level Gander Center
12:19PM 55.6992 -48.6397 231° Southwest  Level Estimated
12:19PM 59.3333 -57.0333 226° Southwest 470 541 37,000  Level Gander Center
12:20PM 55.6264 -48.7995 231° Southwest  Level Estimated
12:20PM 59.2500 -57.2167 228° Southwest 470 541 37,000  Level Gander Center
12:21PM 59.1833 -57.4167 237° Southwest 470 541 37,000  Level Gander Center
12:22PM 59.0833 -57.6167 226° Southwest 470 541 37,000  Level Gander Center
12:23PM 59.0000 -57.7833 226° Southwest 470 541 37,000  Level Gander Center
12:24PM 58.9167 -58.0000 233° Southwest 470 541 37,000  Level Gander Center
12:25PM 58.8333 -58.2000 231° Southwest 470 541 37,000  Level Gander Center
12:26PM 58.7333 -58.4000 226° Southwest 470 541 37,000  Level Gander Center
12:27PM 58.6667 -58.5667 232° Southwest 470 541 37,000  Level Gander Center
12:28PM 58.5833 -58.7500 229° Southwest 470 541 37,000  Level Gander Center
12:29PM 58.4833 -58.9500 226° Southwest 470 541 37,000  Level Gander Center
12:30PM 58.4167 -59.0833 226° Southwest 470 541 37,000  Level Gander Center
12:31PM 58.3167 -59.2833 226° Southwest 470 541 37,000  Level Gander Center
12:32PM 58.2333 -59.4500 227° Southwest 470 541 37,000  Level Gander Center
12:33PM 58.1500 -59.6333 229° Southwest 470 541 37,000  Level Gander Center
12:34PM 58.0667 -59.8333 232° Southwest 470 541 37,000  Level Gander Center
12:35PM 57.9500 -59.9667 211° Southwest 470 541 37,000  Level Gander Center
12:36PM 57.8500 -60.1167 219° Southwest 470 541 37,000  Level Gander Center
12:37PM 57.7333 -60.2500 211° Southwest 470 541 37,000  Level Gander Center
12:38PM 57.6167 -60.4167 217° Southwest 480 552 37,000  Level Gander Center
12:39PM 57.5167 -60.5333 212° Southwest 470 541 37,000  Level Gander Center
12:40PM 57.4000 -60.6667 212° Southwest 470 541 37,000  Level Gander Center
12:41PM 57.2833 -60.7833 208° Southwest 480 552 37,000  Level Gander Center
12:42PM 57.1833 -60.9500 222° Southwest 480 552 37,000  Level Gander Center
12:43PM 57.0667 -61.0667 209° Southwest 480 552 37,000  Level Gander Center
12:44PM 56.9500 -61.1833 209° Southwest 480 552 37,000  Level Gander Center
12:45PM 56.8333 -61.3167 212° Southwest 480 552 37,000  Level Gander Center
12:46PM 56.7167 -61.4667 215° Southwest 480 552 37,000  Level Gander Center
12:47PM 56.6000 -61.5833 209° Southwest 440 506 37,000  Level Gander Center
12:48PM 56.4833 -61.7000 209° Southwest 470 541 37,000  Level Gander Center
12:49PM 56.3833 -61.8167 213° Southwest 470 541 37,000  Level Gander Center
12:50PM 56.2500 -61.9500 209° Southwest 470 541 37,000  Level Gander Center
12:52PM 56.0167 -62.1500 206° Southwest 480 552 37,000  Level Gander Center
12:53PM 55.9000 -62.2667 209° Southwest 480 552 37,000  Level Gander Center
12:54PM 55.7833 -62.3833 209° Southwest 470 541 37,000  Level Gander Center
12:55PM 55.6667 -62.4667 202° Southwest 480 552 37,000  Level Gander Center
12:56PM 55.5500 -62.5833 210° Southwest 480 552 37,000  Level Gander Center
12:57PM 55.4333 -62.7000 210° Southwest 480 552 37,000 -240 Level Gander Center
12:58PM 55.3167 -62.7833 202° Southwest 480 552 36,600 -540 Descending Gander Center
12:59PM 55.1833 -62.8833 203° Southwest 480 552 36,000 -300 Descending Gander Center
01:00PM 55.0667 -63.0000 210° Southwest 470 541 36,000  Level Gander Center
01:01PM 54.9500 -63.1167 210° Southwest 480 552 36,000  Level Gander Center
01:02PM 54.8333 -63.2000 202° Southwest 470 541 36,000  Level Gander Center
01:03PM 54.7167 -63.3000 206° Southwest 470 541 36,000  Level Gander Center
01:05PM 54.4833 -63.4833 205° Southwest 470 541 36,000  Level Moncton Center
01:06PM 54.3667 -63.6000 210° Southwest 470 541 36,000  Level Moncton Center
01:07PM 54.2500 -63.6833 203° Southwest 480 552 36,000  Level Moncton Center
01:08PM 54.1333 -63.7667 203° Southwest 470 541 36,000  Level Moncton Center
01:09PM 54.0167 -63.8833 210° Southwest 480 552 36,000  Level Moncton Center
01:10PM 53.9000 -63.9667 203° Southwest 480 552 36,000  Level Moncton Center
01:11PM 53.7667 -64.0833 207° Southwest 470 541 36,000  Level Moncton Center
01:12PM 53.6500 -64.1667 203° Southwest 460 529 36,000  Level Moncton Center
01:13PM 53.5333 -64.2833 211° Southwest 480 552 36,000  Level Gander Center
01:15PM 53.3167 -64.4833 209° Southwest 470 541 36,000  Level Moncton Center
01:16PM 53.1833 -64.5667 201° Southwest 470 541 36,000  Level Moncton Center
01:17PM 53.0833 -64.6833 215° Southwest 460 529 36,000  Level Moncton Center
01:18PM 52.9500 -64.7833 204° Southwest 470 541 36,000  Level Moncton Center
01:19PM 52.8500 -64.8667 207° Southwest 470 541 36,000  Level Moncton Center
01:20PM 52.7333 -65.0000 215° Southwest 470 541 36,000  Level Moncton Center
01:21PM 52.6167 -65.0833 203° Southwest 470 541 36,000  Level Moncton Center
01:22PM 52.5000 -65.2000 211° Southwest 470 541 36,000  Level Moncton Center
01:23PM 52.3833 -65.3000 208° Southwest 470 541 36,000  Level Moncton Center
01:24PM 52.2667 -65.3833 204° Southwest 470 541 36,000  Level Moncton Center
01:25PM 52.1500 -65.4833 208° Southwest 470 541 36,000  Level Moncton Center
01:26PM 52.0333 -65.6000 212° Southwest 470 541 36,000  Level Moncton Center
01:27PM 51.9167 -65.6667 199° South 470 541 36,000  Level Moncton Center
01:28PM 51.8000 -65.7500 204° Southwest 480 552 36,000  Level Moncton Center
01:29PM 51.6667 -65.8000 193° South 480 552 36,000  Level Moncton Center
01:30PM 51.5167 -65.8500 192° South 480 552 36,000  Level Moncton Center
01:31PM 51.3833 -65.8667 184° South 480 552 36,000  Level Moncton Center
01:32PM 51.2500 -65.9167 193° South 480 552 36,000  Level Moncton Center
01:33PM 51.1333 -65.9667 195° South 480 552 36,000  Level Moncton Center
01:34PM 50.9833 -66.0167 192° South 480 552 36,000  Level Moncton Center
01:35PM 50.8667 -66.0667 195° South 480 552 36,000  Level Moncton Center
01:36PM 50.7333 -66.0833 185° South 480 552 36,000  Level Moncton Center
01:37PM 50.6000 -66.1333 193° South 480 552 36,000  Level Moncton Center
01:38PM 50.4833 -66.1833 195° South 480 552 36,000  Level Moncton Center
01:39PM 50.3333 -66.2333 192° South 480 552 36,000  Level Moncton Center
01:40PM 50.2167 -66.2833 195° South 480 552 36,000  Level Moncton Center
01:41PM 50.1000 -66.3500 200° South 470 541 36,000  Level Moncton Center
01:42PM 49.9667 -66.4333 202° Southwest 470 541 36,000  Level Moncton Center
01:43PM 49.8333 -66.4667 189° South 470 541 36,000  Level Moncton Center
01:44PM 49.7167 -66.5500 205° Southwest 470 541 36,000  Level Moncton Center
01:45PM 49.5833 -66.6167 198° South 470 541 36,000  Level Moncton Center
01:46PM 49.4833 -66.6833 203° Southwest 470 541 36,000  Level Moncton Center
01:47PM 49.3500 -66.7667 202° Southwest 460 529 36,000  Level Moncton Center
01:48PM 49.2333 -66.8333 200° South 470 541 36,000  Level Moncton Center
01:49PM 49.1000 -66.8833 194° South 470 541 36,000  Level Moncton Center
01:50PM 48.9833 -66.9500 201° Southwest 470 541 36,000  Level Moncton Center
01:51PM 48.8667 -67.0167 201° Southwest 470 541 36,000  Level Moncton Center
01:52PM 48.7333 -67.0833 198° South 470 541 36,000  Level Moncton Center
01:53PM 48.6167 -67.1500 201° Southwest 470 541 36,000  Level Moncton Center
01:58PM 47.9100 -67.5254 199° South 465 535 36,000  Level FlightAware ADS-B (CYSG)
01:59PM 47.8010 -67.5812 199° South 464 534 36,000  Level FlightAware ADS-B (CYSG)
02:00PM 47.7214 -67.6217 199° South 463 533 36,000  Level FlightAware ADS-B (CYSG)
02:01PM 47.5599 -67.7037 199° South 464 534 36,000  Level FlightAware ADS-B (CYSG)
02:02PM 47.4448 -67.7618 199° South 467 537 36,000  Level FlightAware ADS-B (CYSG)
02:03PM 47.3692 -67.7999 199° South 469 540 36,000  Level FlightAware ADS-B (CYSG)
02:03PM 47.3030 -67.8330 199° South 471 542 36,000  Level FlightAware ADS-B (CYSG)
02:04PM 47.1957 -67.8866 199° South 472 543 36,000  Level FlightAware ADS-B (CYSG)
02:05PM 47.1188 -67.9248 199° South 468 539 36,000  Level FlightAware ADS-B (CYSG)
02:06PM 46.9928 -67.9870 199° South 466 536 36,000  Level FlightAware ADS-B (CYSG)
02:07PM 46.9200 -68.0230 199° South 463 533 36,000  Level FlightAware ADS-B (CYSG)
02:07PM 46.8338 -68.0654 199° South 465 535 36,000  Level FlightAware ADS-B (CYSG)
02:08PM 46.7531 -68.1049 198° South 465 535 36,000  Level FlightAware ADS-B (CYSG)
02:09PM 46.6452 -68.1493 195° South 465 535 36,000  Level FlightAware ADS-B (CYSG)
02:09PM 46.5780 -68.1767 196° South 462 532 36,000  Level FlightAware ADS-B (CYSG)
02:10PM 46.5113 -68.2041 196° South 460 529 36,000  Level FlightAware ADS-B (CYSG)
02:10PM 46.4404 -68.2333 196° South 454 522 36,000  Level FlightAware ADS-B (CYSG)
02:11PM 46.3721 -68.2614 196° South 452 520 36,000  Level FlightAware ADS-B (CYSG)
02:12PM 46.3090 -68.2874 196° South 449 517 36,000  Level FlightAware ADS-B (CYSG)
02:12PM 46.2451 -68.3137 196° South 449 517 36,000  Level FlightAware ADS-B (CYSG)
02:13PM 46.1842 -68.3387 196° South 451 519 36,000  Level FlightAware ADS-B (CYSG)
02:13PM 46.0939 -68.3757 196° South 451 519 36,000  Level FlightAware ADS-B (CYSG)
02:14PM 46.0225 -68.4048 196° South 450 518 36,000  Level FlightAware ADS-B (CYSG)
02:15PM 45.9408 -68.4377 196° South 448 516 36,000  Level FlightAware ADS-B (CYSG)
02:15PM 45.8627 -68.4692 196° South 447 514 36,000  Level FlightAware ADS-B (CYSG)
02:16PM 45.7683 -68.5072 196° South 429 494 36,000  Level FlightAware ADS-B (CYSG)
02:17PM 45.7193 -68.5269 196° South 421 484 36,000  Level FlightAware ADS-B (CYSG)
02:17PM 45.6512 -68.5544 196° South 417 480 36,000  Level FlightAware ADS-B (CYSG)
02:18PM 45.5951 -68.5769 196° South 417 480 36,000  Level FlightAware ADS-B (CYSG)
02:18PM 45.5084 -68.6115 196° South 417 480 36,000  Level FlightAware ADS-B (CYSG)
02:19PM 45.4530 -68.6335 196° South 415 478 36,000  Level FlightAware ADS-B (CYSG)
02:19PM 45.3979 -68.6554 196° South 413 475 36,000  Level FlightAware ADS-B (CYSG)
02:20PM 45.3393 -68.6786 196° South 415 478 36,000  Level FlightAware ADS-B (CYSG)
02:20PM 45.2844 -68.7004 196° South 417 480 36,000  Level FlightAware ADS-B (CYQI)
02:21PM 45.2251 -68.7238 196° South 421 484 36,000  Level FlightAware ADS-B (CYQI)
02:22PM 45.1658 -68.7472 196° South 423 487 36,000  Level FlightAware ADS-B (CYSG)
02:22PM 45.1074 -68.7702 195° South 425 489 36,000  Level FlightAware ADS-B (CYQI)
02:23PM 45.0580 -68.7896 196° South 428 493 36,000  Level FlightAware ADS-B (KBGR)
02:23PM 44.9865 -68.8176 196° South 429 494 36,000  Level FlightAware ADS-B (CYQI)
02:23PM 44.9479 -68.8327 195° South 428 493 36,000  Level FlightAware ADS-B (KBGR)
02:24PM 44.8724 -68.8622 196° South 422 486 36,000  Level FlightAware ADS-B (KBGR)
02:25PM 44.8156 -68.8912 203° Southwest 411 473 36,000  Level FlightAware ADS-B (CYQI)
02:25PM 44.7658 -68.9250 207° Southwest 406 467 36,000  Level FlightAware ADS-B (CYSG)
02:26PM 44.7033 -68.9685 206° Southwest 409 471 36,000  Level FlightAware ADS-B (CYQI)
02:26PM 44.6525 -69.0034 206° Southwest 410 472 36,000  Level FlightAware ADS-B (KBGR)
02:27PM 44.5976 -69.0407 206° Southwest 410 472 36,000  Level FlightAware ADS-B (KBGR)
02:27PM 44.5463 -69.0755 206° Southwest 409 471 36,000  Level FlightAware ADS-B (CYQI)
02:28PM 44.4885 -69.1146 206° Southwest 409 471 36,000  Level FlightAware ADS-B (CYQI)
02:28PM 44.4353 -69.1504 206° Southwest 408 470 36,000  Level FlightAware ADS-B (CYQI)
02:29PM 44.3850 -69.1843 206° Southwest 408 470 36,000  Level FlightAware ADS-B (CYQI)
02:29PM 44.3319 -69.2201 206° Southwest 407 468 36,000  Level FlightAware ADS-B (CYQI)
02:30PM 44.2871 -69.2501 206° Southwest 404 465 36,000  Level FlightAware ADS-B (CYQI)
02:30PM 44.2284 -69.2894 206° Southwest 397 457 36,000  Level FlightAware ADS-B (CYQI)
02:31PM 44.1820 -69.3204 206° Southwest 394 453 36,000  Level FlightAware ADS-B (CYQI)
02:32PM 44.1064 -69.3711 206° Southwest 395 455 36,000  Level FlightAware ADS-B (CYQI)
02:32PM 44.0555 -69.4049 206° Southwest 395 455 36,000  Level FlightAware ADS-B (CYQI)
02:33PM 43.9873 -69.4503 206° Southwest 392 451 36,000  Level FlightAware ADS-B (CYQI)
02:33PM 43.9358 -69.4843 206° Southwest 385 443 36,000  Level FlightAware ADS-B (KBOS)
02:34PM 43.8759 -69.5240 205° Southwest 380 437 36,000  Level FlightAware ADS-B (CYQI)
02:35PM 43.8530 -69.5390 206° Southwest 377 434 36,000  Level FlightAware ADS-B (CYQI)
02:35PM 43.7501 -69.6069 206° Southwest 377 434 36,000  Level FlightAware ADS-B (CYQI)
02:36PM 43.6521 -69.6713 206° Southwest 377 434 36,000  Level FlightAware ADS-B (KBOS)
02:37PM 43.5891 -69.7124 205° Southwest 375 432 36,000  Level FlightAware ADS-B (KBOS)
02:38PM 43.4973 -69.7723 205° Southwest 375 432 36,000  Level FlightAware ADS-B (KBOS)
02:39PM 43.4302 -69.8136 200° South 383 441 36,000  Level FlightAware ADS-B (CYQI)
02:39PM 43.4012 -69.8264 196° South 389 448 36,000  Level FlightAware ADS-B (KBOS)
02:40PM 43.3475 -69.8430 189° South 399 459 36,000  Level FlightAware ADS-B (KBOS)
02:40PM 43.2840 -69.8534 187° South 403 464 36,000  Level FlightAware ADS-B (CYQI)
02:41PM 43.2207 -69.8637 187° South 401 461 36,000  Level FlightAware ADS-B (KBOS)
02:41PM 43.1478 -69.8749 186° South 397 457 36,000  Level FlightAware ADS-B (CYQI)
02:42PM 43.0919 -69.8833 186° South 397 457 36,000  Level FlightAware ADS-B (CYQI)
02:42PM 43.0383 -69.8910 186° South 395 455 36,000  Level FlightAware ADS-B (KBOS)
02:43PM 42.9662 -69.9015 186° South 395 455 36,000  Level FlightAware ADS-B (KBOS)
02:44PM 42.8932 -69.9121 186° South 397 457 36,000  Level FlightAware ADS-B (KBOS)
02:44PM 42.8165 -69.9232 186° South 398 458 36,000  Level FlightAware ADS-B (KBOS)
02:45PM 42.7424 -69.9339 186° South 401 461 36,000  Level FlightAware ADS-B (KBOS)
02:46PM 42.6842 -69.9423 186° South 401 461 36,000  Level FlightAware ADS-B (KBOS)
02:46PM 42.6243 -69.9510 186° South 400 460 36,000  Level FlightAware ADS-B (KBOS)
02:47PM 42.5449 -69.9622 186° South 394 453 36,000  Level FlightAware ADS-B (KBOS)
02:47PM 42.4709 -69.9729 186° South 396 456 36,000  Level FlightAware ADS-B (KBOS)
02:48PM 42.4180 -69.9805 186° South 396 456 36,000  Level FlightAware ADS-B (KBOS)
02:49PM 42.3518 -69.9899 186° South 392 451 36,000  Level FlightAware ADS-B (KBOS)
02:49PM 42.2974 -69.9976 186° South 391 450 36,000  Level FlightAware ADS-B (KBOS)
02:50PM 42.2437 -70.0053 186° South 391 450 36,000  Level FlightAware ADS-B (KBOS)
02:50PM 42.1718 -70.0155 186° South 389 448 36,000  Level FlightAware ADS-B (KBOS)
02:51PM 42.1353 -70.0227 194° South 375 432 36,000  Level FlightAware ADS-B (KOWD)
02:51PM 42.0623 -70.0520 201° Southwest 363 418 36,000  Level FlightAware ADS-B (KBOS)
02:52PM 42.0055 -70.0898 208° Southwest 356 410 36,000  Level FlightAware ADS-B (KBOS)
02:53PM 41.9562 -70.1363 220° Southwest 340 391 36,000  Level FlightAware ADS-B (KOWD)
02:53PM 41.9103 -70.1951 228° Southwest 335 386 36,000  Level FlightAware ADS-B (KBOS)
02:54PM 41.8673 -70.2581 227° Southwest 336 387 36,000  Level FlightAware ADS-B (KBOS)
02:55PM 41.8342 -70.3061 227° Southwest 337 388 36,000  Level FlightAware ADS-B (KOWD)
02:55PM 41.7980 -70.3589 227° Southwest 338 389 36,000  Level FlightAware ADS-B (KBOS)
02:56PM 41.7705 -70.3989 227° Southwest 338 389 36,000  Level FlightAware ADS-B (KBOS)
02:56PM 41.7447 -70.4364 228° Southwest 340 391 36,000  Level FlightAware ADS-B (KBOS)
02:57PM 41.7000 -70.5016 227° Southwest 338 389 36,000  Level FlightAware ADS-B (KBOS)
02:57PM 41.6454 -70.5807 227° Southwest 338 389 36,000  Level FlightAware ADS-B (KOWD)
02:58PM 41.6051 -70.6388 227° Southwest 335 386 36,000  Level FlightAware ADS-B (KOWD)
02:59PM 41.5703 -70.6893 227° Southwest 335 386 36,000  Level FlightAware ADS-B (KOWD)
02:59PM 41.5307 -70.7461 227° Southwest 335 386 36,000  Level FlightAware ADS-B (KOWD)
03:02PM 41.3688 -70.9784 227° Southwest 338 389 36,000  Level FlightAware ADS-B (KOWD)
03:07PM 41.1355 -71.4716 228° Southwest 334 384 36,000  Level FlightAware ADS-B (KSNC)
03:08PM 41.0798 -71.5525 228° Southwest 333 383 36,000  Level FlightAware ADS-B (KSNC)
03:08PM 41.0370 -71.6142 227° Southwest 333 383 36,000  Level FlightAware ADS-B (KSNC)
03:09PM 41.0023 -71.6640 227° Southwest 333 383 36,000  Level FlightAware ADS-B (KSNC)
03:10PM 40.9429 -71.7490 227° Southwest 335 386 36,000  Level FlightAware ADS-B (KSNC)
03:11PM 40.8899 -71.8245 227° Southwest 335 386 36,000  Level FlightAware ADS-B (KSNC)
03:11PM 40.8403 -71.8951 227° Southwest 335 386 36,000  Level FlightAware ADS-B (KSNC)
03:12PM 40.8075 -71.9417 227° Southwest 336 387 36,000  Level FlightAware ADS-B (KSNC)
03:12PM 40.7650 -72.0019 227° Southwest 337 388 36,000  Level FlightAware ADS-B (KSNC)
03:13PM 40.7314 -72.0490 227° Southwest 336 387 36,000  Level FlightAware ADS-B (KSNC)
03:14PM 40.6814 -72.1201 227° Southwest 338 389 36,000  Level FlightAware ADS-B (KSNC)
03:15PM 40.6361 -72.1843 227° Southwest 338 389 36,000  Level FlightAware ADS-B (KSNC)
03:15PM 40.6073 -72.2248 227° Southwest 340 391 36,000  Level FlightAware ADS-B (KSNC)
03:16PM 40.5607 -72.2904 227° Southwest 342 394 36,000  Level FlightAware ADS-B (KSNC)
03:16PM 40.5193 -72.3485 227° Southwest 345 397 36,000  Level FlightAware ADS-B (KSNC)
03:17PM 40.4869 -72.3939 227° Southwest 345 397 36,000  Level FlightAware ADS-B (KSNC)
03:17PM 40.4437 -72.4543 227° Southwest 345 397 36,000  Level FlightAware ADS-B (KSNC)
03:18PM 40.4100 -72.5013 227° Southwest 345 397 36,000  Level FlightAware ADS-B (KSNC)
03:19PM 40.3617 -72.5686 227° Southwest 347 399 36,000  Level FlightAware ADS-B (KSNC)
03:19PM 40.3276 -72.6159 227° Southwest 347 399 36,000  Level FlightAware ADS-B (KSNC)
03:20PM 40.2933 -72.6638 227° Southwest 349 402 36,000  Level FlightAware ADS-B (KSNC)
03:20PM 40.2566 -72.7148 227° Southwest 349 402 36,000  Level FlightAware ADS-B (KSNC)
03:21PM 40.2208 -72.7643 227° Southwest 350 403 36,000  Level FlightAware ADS-B (KSNC)
03:22PM 40.1767 -72.8254 227° Southwest 352 405 36,000  Level FlightAware ADS-B (KSNC)
03:22PM 40.1415 -72.8738 227° Southwest 354 407 36,000  Level FlightAware ADS-B (KSNC)
03:23PM 40.1040 -72.9254 227° Southwest 354 407 36,000  Level FlightAware ADS-B (KSNC)
03:23PM 40.0606 -72.9850 227° Southwest 356 410 36,000  Level FlightAware ADS-B (KSNC)
03:24PM 39.9808 -73.0944 227° Southwest 357 411 36,000  Level FlightAware ADS-B (KSNC)
03:25PM 39.9427 -73.1464 226° Southwest 359 413 36,000  Level FlightAware ADS-B (KSNC)
03:25PM 39.9077 -73.1942 227° Southwest 361 415 36,000  Level FlightAware ADS-B (KPVU)
03:26PM 39.8639 -73.2539 226° Southwest 362 417 36,000  Level FlightAware ADS-B (KSNC)
03:27PM 39.8185 -73.3157 226° Southwest 364 419 36,000  Level FlightAware ADS-B (KSNC)
03:27PM 39.7895 -73.3551 226° Southwest 365 420 36,000  Level FlightAware ADS-B (KSNC)
03:28PM 39.7388 -73.4238 226° Southwest 368 423 36,000  Level FlightAware ADS-B (KSNC)
03:28PM 39.6991 -73.4775 226° Southwest 370 426 36,000  Level FlightAware ADS-B (KSNC)
03:29PM 39.6543 -73.5380 226° Southwest 371 427 36,000  Level FlightAware ADS-B (KPVU)
03:30PM 39.5984 -73.6010 214° Southwest 372 428 36,000  Level FlightAware ADS-B (KPVU)
03:30PM 39.5463 -73.6468 215° Southwest 375 432 36,000  Level FlightAware ADS-B (KPVU)
03:31PM 39.5249 -73.6657 214° Southwest 376 433 36,000  Level FlightAware ADS-B (KPVU)
03:31PM 39.4769 -73.7083 214° Southwest 377 434 36,000  Level FlightAware ADS-B (KSNC)
03:32PM 39.4340 -73.7460 214° Southwest 378 435 36,000  Level FlightAware ADS-B (KPVU)
03:32PM 39.3706 -73.8016 214° Southwest 378 435 36,000  Level FlightAware ADS-B (KPVU)
03:33PM 39.3558 -73.8146 215° Southwest 372 428 36,000  Level FlightAware ADS-B (KWWD)
03:34PM 39.2563 -73.9019 215° Southwest 372 428 36,000  Level FlightAware ADS-B (KWWD)
03:34PM 39.2092 -73.9432 215° Southwest 373 429 36,000  Level FlightAware ADS-B (KWWD)
03:35PM 39.1582 -73.9877 215° Southwest 376 433 36,000  Level FlightAware ADS-B (KWWD)
03:35PM 39.1070 -74.0324 215° Southwest 377 434 36,000  Level FlightAware ADS-B (KWWD)
03:36PM 39.0521 -74.0803 215° Southwest 378 435 36,000  Level FlightAware ADS-B (KWWD)
03:37PM 39.0028 -74.1232 214° Southwest 385 443 36,000  Level FlightAware ADS-B (KWWD)
03:37PM 38.9451 -74.1733 214° Southwest 387 445 36,000  Level FlightAware ADS-B (KWWD)
03:38PM 38.8848 -74.2256 214° Southwest 388 447 36,000  Level FlightAware ADS-B (KWWD)
03:38PM 38.8413 -74.2632 214° Southwest 389 448 36,000  Level FlightAware ADS-B (KWWD)
03:39PM 38.7815 -74.3149 214° Southwest 389 448 36,000  Level FlightAware ADS-B (KWWD)
03:40PM 38.7216 -74.3666 214° Southwest 391 450 36,000  Level FlightAware ADS-B (KWWD)
03:40PM 38.6763 -74.4056 214° Southwest 391 450 36,000  Level FlightAware ADS-B (KWWD)
03:41PM 38.6175 -74.4559 214° Southwest 390 449 36,000  Level FlightAware ADS-B (KWWD)
03:41PM 38.5721 -74.4949 214° Southwest 391 450 36,000  Level FlightAware ADS-B (KWWD)
03:42PM 38.5169 -74.5421 214° Southwest 393 452 36,000  Level FlightAware ADS-B (KWWD)
03:43PM 38.4659 -74.5856 215° Southwest 388 447 36,000  Level FlightAware ADS-B (KWWD)
03:43PM 38.4210 -74.6239 215° Southwest 388 447 36,000  Level FlightAware ADS-B (KWWD)
03:44PM 38.3640 -74.6725 214° Southwest 389 448 36,000  Level FlightAware ADS-B (KWWD)
03:44PM 38.3123 -74.7163 214° Southwest 390 449 36,000  Level FlightAware ADS-B (KWWD)
03:45PM 38.2670 -74.7547 214° Southwest 391 450 36,000  Level FlightAware ADS-B (KWWD)
03:45PM 38.2169 -74.7972 214° Southwest 393 452 36,000  Level FlightAware ADS-B (KWWD)
03:47PM 38.1037 -74.8928 214° Southwest 395 455 36,000  Level FlightAware ADS-B (KWWD)
03:48PM 38.0002 -74.9798 214° Southwest 403 464 36,000  Level FlightAware ADS-B (KWWD)
03:48PM 37.9472 -75.0243 214° Southwest 403 464 36,000  Level FlightAware ADS-B (KWWD)
03:49PM 37.8657 -75.0926 214° Southwest 406 467 36,000  Level FlightAware ADS-B (KWWD)
03:50PM 37.8039 -75.1442 214° Southwest 407 468 36,000  Level FlightAware ADS-B (KWWD)
03:50PM 37.7511 -75.1883 214° Southwest 407 468 36,000  Level FlightAware ADS-B (KWWD)
03:52PM 37.6358 -75.2842 214° Southwest 408 470 36,000  Level FlightAware ADS-B (KWWD)
03:52PM 37.5865 -75.3251 214° Southwest 408 470 36,000  Level FlightAware ADS-B (KWWD)
03:53PM 37.4764 -75.4192 214° Southwest 421 484 36,000  Level Washington Center
03:54PM 37.3825 -75.4978 214° Southwest 421 484 36,000  Level Washington Center
03:55PM 37.2867 -75.5761 213° Southwest 421 484 36,000  Level Washington Center
03:56PM 37.1908 -75.6544 213° Southwest 421 484 36,000  Level Washington Center
03:57PM 37.0947 -75.7325 213° Southwest 421 484 36,000  Level Washington Center
03:58PM 36.9967 -75.8025 210° Southwest 421 484 36,000  Level Washington Center
03:59PM 36.8839 -75.8594 202° Southwest 416 479 36,000  Level Washington Center
04:00PM 36.7753 -75.9161 203° Southwest 422 486 36,000  Level Washington Center
04:01PM 36.6539 -75.9803 203° Southwest 432 497 36,000  Level Washington Center
04:02PM 36.5475 -76.0392 204° Southwest 432 497 36,000  Level Washington Center
04:03PM 36.4386 -76.0953 203° Southwest 432 497 36,000  Level Washington Center
04:04PM 36.3300 -76.1514 203° Southwest 432 497 36,000  Level Washington Center
04:05PM 36.2192 -76.2100 203° Southwest 432 497 36,000  Level Washington Center
04:06PM 36.1042 -76.2681 202° Southwest 439 505 36,000  Level Washington Center
04:07PM 35.9931 -76.3211 201° Southwest 439 505 36,000  Level Washington Center
04:08PM 35.8822 -76.3817 204° Southwest 439 505 36,000  Level Washington Center
04:09PM 35.7692 -76.4369 202° Southwest 439 505 36,000  Level Washington Center
04:10PM 35.6581 -76.4944 203° Southwest 439 505 36,000  Level Washington Center
04:11PM 35.5431 -76.5519 202° Southwest 439 505 36,000  Level Washington Center
04:12PM 35.4339 -76.6117 204° Southwest 439 505 36,000  Level Washington Center
04:13PM 35.3208 -76.6664 202° Southwest 439 505 36,000  Level Washington Center
04:14PM 35.2117 -76.7208 202° Southwest 439 505 36,000  Level Washington Center
04:15PM 35.1111 -76.7703 202° Southwest 439 505 36,000  Level Washington Center
04:16PM 34.9978 -76.8294 203° Southwest 439 505 36,000  Level Washington Center
04:17PM 34.8806 -76.8858 202° Southwest 444 511 36,000  Level Washington Center
04:18PM 34.7650 -76.9472 204° Southwest 449 517 36,000  Level Washington Center
04:19PM 34.6475 -77.0033 201° Southwest 454 522 36,000  Level Washington Center
04:20PM 34.5319 -77.0644 204° Southwest 454 522 36,000  Level Washington Center
04:21PM 34.4144 -77.1178 201° Southwest 454 522 36,000  Level Washington Center
04:22PM 34.2992 -77.1758 203° Southwest 454 522 36,000  Level Washington Center
04:23PM 34.1836 -77.2339 203° Southwest 454 522 36,000  Level Washington Center
04:24PM 34.0658 -77.2892 201° Southwest 454 522 36,000  Level Washington Center
04:25PM 33.9419 -77.3492 202° Southwest 454 522 36,000  Level Washington Center
04:27PM 33.7847 -77.4256 202° Southwest 469 540 36,000  Level Jacksonville Center
04:28PM 33.6744 -77.4797 202° Southwest 453 521 36,000  Level Jacksonville Center
04:29PM 33.5619 -77.5339 202° Southwest 448 516 36,000  Level Jacksonville Center
04:30PM 33.4517 -77.5881 202° Southwest 442 509 36,000  Level Jacksonville Center
04:31PM 33.3369 -77.6419 201° Southwest 442 509 36,000  Level Jacksonville Center
04:32PM 33.2244 -77.6958 202° Southwest 442 509 36,000  Level Jacksonville Center
04:33PM 33.1119 -77.7519 203° Southwest 442 509 36,000  Level Jacksonville Center
04:34PM 32.9972 -77.8056 201° Southwest 442 509 36,000  Level Jacksonville Center
04:35PM 32.8867 -77.8589 202° Southwest 442 509 36,000  Level Jacksonville Center
04:36PM 32.7719 -77.9122 201° Southwest 442 509 36,000  Level Jacksonville Center
04:37PM 32.6594 -77.9678 203° Southwest 442 509 36,000  Level Jacksonville Center
04:38PM 32.5464 -78.0158 200° South 442 509 36,000  Level Jacksonville Center
04:39PM 32.4317 -78.0711 202° Southwest 442 509 36,000  Level Jacksonville Center
04:40PM 32.3208 -78.1236 202° Southwest 442 509 36,000  Level Jacksonville Center
04:41PM 32.2081 -78.1739 201° Southwest 442 509 36,000  Level Jacksonville Center
04:42PM 32.0975 -78.2308 204° Southwest 442 509 36,000  Level Jacksonville Center
04:43PM 31.9928 -78.2803 202° Southwest 448 516 36,000  Level Jacksonville Center
04:44PM 31.8842 -78.3322 202° Southwest 441 507 36,000  Level Jacksonville Center
04:45PM 31.7731 -78.3817 201° Southwest 441 507 36,000  Level Jacksonville Center
04:46PM 31.6581 -78.4361 202° Southwest 441 507 36,000  Level Jacksonville Center
04:47PM 31.5472 -78.4878 202° Southwest 441 507 36,000  Level Jacksonville Center
04:48PM 31.4300 -78.5419 202° Southwest 436 502 36,000  Level Jacksonville Center
04:49PM 31.3231 -78.5858 199° South 436 502 36,000  Level Jacksonville Center
04:50PM 31.2122 -78.6419 203° Southwest 436 502 36,000  Level Jacksonville Center
04:51PM 31.0992 -78.6908 200° South 436 502 36,000  Level Jacksonville Center
04:52PM 30.9758 -78.7494 202° Southwest 437 503 36,000  Level Jacksonville Center
04:53PM 30.8606 -78.8006 201° Southwest 441 507 36,000  Level Jacksonville Center
04:54PM 30.7450 -78.8489 200° South 439 505 36,000  Level Jacksonville Center
04:55PM 30.6300 -78.9022 202° Southwest 440 506 36,000  Level Jacksonville Center
04:56PM 30.5489 -78.9403 202° Southwest 434 499 36,000  Level Miami Center
04:57PM 30.4369 -78.9900 201° Southwest 431 496 36,000  Level Miami Center
04:58PM 30.3236 -79.0408 201° Southwest 432 497 36,000  Level Miami Center
04:59PM 30.2111 -79.0892 200° South 432 497 36,000  Level Miami Center
05:00PM 30.0997 -79.1367 200° South 430 495 36,000  Level Miami Center
05:01PM 29.9758 -79.1900 200° South 424 488 36,000  Level Miami Center
05:02PM 29.8633 -79.2389 201° Southwest 429 494 36,000  Level Miami Center
05:03PM 29.7525 -79.2869 201° Southwest 429 494 36,000  Level Miami Center
05:04PM 29.6192 -79.3453 201° Southwest 427 491 36,000  Level Miami Center
05:05PM 29.5053 -79.3878 198° South 427 491 36,000  Level Miami Center
05:10PM 28.9090 -79.6070 198° South 423 487 36,000  Level FlightAware ADS-B (KMCO)
05:11PM 28.8116 -79.6430 198° South 421 484 36,000 240 Level FlightAware ADS-B (KMCO)
05:12PM 28.7071 -79.6815 198° South 422 486 36,400 660 Climbing FlightAware ADS-B (KMCO)
05:14PM 28.5014 -79.7569 198° South 418 481 38,000 660 Climbing FlightAware ADS-B (KMCO)
05:14PM 28.4469 -79.7767 198° South 415 478 38,000  Level FlightAware ADS-B (KMCO)
05:15PM 28.3692 -79.8052 198° South 416 479 38,000  Level FlightAware ADS-B (KMCO)
05:16PM 28.3199 -79.8232 198° South 416 479 38,000  Level FlightAware ADS-B (KMCO)
05:16PM 28.2266 -79.8572 198° South 415 478 38,000  Level FlightAware ADS-B (KMCO)
05:17PM 28.1206 -79.8957 198° South 416 479 38,000  Level FlightAware ADS-B (KMCO)
05:18PM 28.0055 -79.9375 198° South 417 480 38,000  Level FlightAware ADS-B (KMCO)
05:19PM 27.9466 -79.9589 198° South 417 480 38,000  Level FlightAware ADS-B (KMCO)
05:20PM 27.8742 -79.9851 198° South 419 482 38,000  Level FlightAware ADS-B (KMCO)
05:20PM 27.8205 -80.0045 198° South 419 482 38,000  Level FlightAware ADS-B (KMCO)
05:21PM 27.7491 -80.0302 198° South 417 480 38,000  Level FlightAware ADS-B (KMCO)
05:21PM 27.6704 -80.0586 198° South 417 480 38,000  Level FlightAware ADS-B (KMCO)
05:22PM 27.5873 -80.0885 198° South 421 484 38,000  Level FlightAware ADS-B (KMCO)
05:23PM 27.5253 -80.1109 198° South 422 486 38,000  Level FlightAware ADS-B (KMCO)
05:23PM 27.4675 -80.1315 198° South 421 484 38,000  Level FlightAware ADS-B (KMCO)
05:24PM 27.3966 -80.1569 198° South 422 486 38,000  Level FlightAware ADS-B (KMCO)
05:24PM 27.3307 -80.1806 198° South 425 489 38,000  Level FlightAware ADS-B (KMCO)
05:25PM 27.2628 -80.2049 198° South 428 493 38,000  Level FlightAware ADS-B (KMCO)
05:26PM 27.1887 -80.2313 198° South 430 495 38,000  Level FlightAware ADS-B (KMCO)
05:27PM 27.0855 -80.2680 198° South 429 494 38,000  Level FlightAware ADS-B (KMCO)
05:27PM 26.9777 -80.3064 198° South 428 493 38,000  Level FlightAware ADS-B (KMCO)
05:29PM 26.8212 -80.3620 198° South 427 491 38,000  Level FlightAware ADS-B (KMCO)
05:29PM 26.7517 -80.3867 198° South 427 491 38,000  Level FlightAware ADS-B (KMCO)
05:30PM 26.6945 -80.4068 198° South 427 491 38,000  Level FlightAware ADS-B (KMCO)
05:31PM 26.5978 -80.4409 198° South 426 490 38,000  Level FlightAware ADS-B (KMCO)
05:31PM 26.5317 -80.4642 198° South 424 488 38,000  Level FlightAware ADS-B (KMCO)
05:32PM 26.4709 -80.4857 198° South 425 489 38,000  Level FlightAware ADS-B (KMCO)
05:33PM 26.3996 -80.5108 198° South 426 490 38,000  Level FlightAware ADS-B (KMCO)
05:34PM 26.2717 -80.5556 198° South 424 488 38,000  Level Miami Center
05:35PM 26.1353 -80.6028 197° South 429 494 38,000  Level Miami Center
05:36PM 26.0214 -80.6433 198° South 430 495 38,000  Level Miami Center
05:37PM 25.9067 -80.6825 197° South 429 494 38,000  Level Miami Center
05:38PM 25.7975 -80.7222 198° South 424 488 38,000  Level Miami Center
05:39PM 25.6650 -80.7706 198° South 424 488 38,000  Level Miami Center
05:40PM 25.5700 -80.8297 209° Southwest 403 464 38,000  Level Miami Center
05:41PM 25.4869 -80.9078 220° Southwest 396 456 38,000  Level Miami Center
05:42PM 25.4025 -80.9867 220° Southwest 397 457 38,000  Level Miami Center
05:43PM 25.3175 -81.0667 220° Southwest 398 458 38,000  Level Miami Center
05:44PM 25.2325 -81.1469 221° Southwest 402 463 38,000  Level Miami Center
05:45PM 25.1311 -81.2428 221° Southwest 401 461 38,000  Level Miami Center
05:46PM 25.0461 -81.3228 220° Southwest 401 461 38,000 -420 Level Miami Center
05:47PM 24.9606 -81.4019 220° Southwest 401 461 37,200 -720 Descending Miami Center
05:48PM 24.8753 -81.4819 220° Southwest 401 461 36,600 -840 Descending Miami Center
05:50PM 24.7744 -81.5769 221° Southwest 402 463 35,500 -1,020 Descending Miami Center
05:51PM 24.6836 -81.6617 220° Southwest 412 474 34,500 -1,020 Descending Miami Center
05:52PM 24.5942 -81.7431 220° Southwest 416 479 33,500 -960 Descending Miami Center
05:53PM 24.5172 -81.8272 225° Southwest 424 488 32,600 -1,020 Descending Miami Center
05:54PM 24.4369 -81.9367 231° Southwest 420 483 31,500 -1,020 Descending Miami Center
05:55PM 24.3619 -82.0367 231° Southwest 421 484 30,500 -960 Descending Miami Center
05:56PM 24.2878 -82.1364 231° Southwest 422 486 29,500 -1,200 Descending Miami Center
05:57PM 24.1989 -82.2572 231° Southwest 422 486 28,100 -1,800 Descending Miami Center
05:58PM 24.1247 -82.3556 230° Southwest 421 484 25,800 -2,460 Descending Miami Center
05:59PM 24.0308 -82.4489 222° Southwest 420 483 23,100 -2,640 Descending Miami Center
06:01PM 23.8812 -82.4997 173° South  Level FlightAware Approximate
06:08PM 23.0742 -82.4048 170° South  Level FlightAware Approximate
06:09PM 22.9891 -82.4091 180° South  Level Estimated
06:10PM 22.9891 -82.4091 180° South  Level Estimated
06:11PM 22.9891 -82.4091 180° South  Level Estimated
06:12PM 22.9891 -82.4091 180° South  Level Estimated
06:13PM 22.9891 -82.4091 180° South  Level Estimated
06:14PM 22.9891 -82.4091 180° South  Level Estimated
06:15PM 22.9891 -82.4091 180° South  Level Estimated